createdAt,value
2018-09-21T00:03:03.025Z,3.87
2018-09-21T00:08:06.766Z,3.80
2018-09-21T00:13:10.517Z,3.23
2018-09-21T00:18:14.065Z,4.07
2018-09-21T00:23:17.763Z,3.90
2018-09-21T00:28:21.284Z,3.90
2018-09-21T00:33:25.187Z,3.83
2018-09-21T00:38:28.702Z,4.23
2018-09-21T00:43:32.460Z,3.67
2018-09-21T00:48:35.993Z,2.97
2018-09-21T00:53:39.516Z,4.50
2018-09-21T00:58:43.119Z,3.80
2018-09-21T01:03:46.896Z,4.70
2018-09-21T01:08:50.832Z,4.27
2018-09-21T01:13:54.463Z,4.50
2018-09-21T01:18:58.248Z,4.60
2018-09-21T01:24:01.861Z,4.00
2018-09-21T01:29:05.432Z,3.60
2018-09-21T01:34:09.080Z,4.30
2018-09-21T01:39:12.763Z,3.83
2018-09-21T01:44:16.283Z,4.67
2018-09-21T01:49:19.920Z,4.80
2018-09-21T01:54:23.455Z,4.63
2018-09-21T01:59:27.504Z,4.40
2018-09-21T02:04:36.472Z,4.83
2018-09-21T02:09:40.297Z,4.90
2018-09-21T02:14:43.843Z,5.07
2018-09-21T02:19:47.414Z,5.10
2018-09-21T02:24:51.326Z,4.90
2018-09-21T02:29:55.016Z,4.77
2018-09-21T02:34:58.744Z,4.27
2018-09-21T02:40:02.459Z,5.37
2018-09-21T02:45:07.023Z,5.53
2018-09-21T02:50:10.691Z,5.00
2018-09-21T02:55:14.550Z,5.43
2018-09-21T03:00:20.536Z,4.83
2018-09-21T03:05:24.260Z,5.20
2018-09-21T03:10:27.818Z,5.13
2018-09-21T03:15:31.599Z,4.50
2018-09-21T03:20:35.315Z,4.87
2018-09-21T03:25:39.242Z,5.17
2018-09-21T03:30:42.959Z,5.07
2018-09-21T03:35:46.566Z,5.60
2018-09-21T03:40:50.604Z,5.20
2018-09-21T03:45:54.191Z,5.43
2018-09-21T03:50:58.107Z,4.43
2018-09-21T03:56:01.776Z,4.67
2018-09-21T04:01:05.722Z,4.33
2018-09-21T04:06:09.365Z,4.63
2018-09-21T04:11:13.028Z,5.37
2018-09-21T04:16:16.769Z,4.83
2018-09-21T04:21:20.541Z,5.63
2018-09-21T04:26:24.471Z,4.93
2018-09-21T04:31:28.227Z,4.53
2018-09-21T04:36:31.877Z,5.00
2018-09-21T04:41:35.938Z,4.80
2018-09-21T04:46:39.605Z,4.70
2018-09-21T04:51:43.342Z,4.60
2018-09-21T04:56:47.007Z,3.60
2018-09-21T05:01:50.959Z,4.33
2018-09-21T05:06:54.914Z,4.50
2018-09-21T05:11:58.452Z,4.33
2018-09-21T05:17:02.113Z,4.23
2018-09-21T05:22:05.701Z,4.67
2018-09-21T05:27:09.232Z,5.20
2018-09-21T05:32:12.916Z,4.50
2018-09-21T05:37:16.500Z,4.20
2018-09-21T05:42:21.222Z,3.93
2018-09-21T05:47:25.042Z,3.93
2018-09-21T05:52:28.649Z,4.87
2018-09-21T05:57:32.255Z,4.97
2018-09-21T06:02:35.850Z,4.80
2018-09-21T06:07:39.535Z,4.93
2018-09-21T06:12:43.168Z,5.50
2018-09-21T06:17:46.818Z,4.90
2018-09-21T06:22:50.724Z,4.90
2018-09-21T06:27:54.360Z,5.03
2018-09-21T06:32:58.113Z,4.60
2018-09-21T06:38:01.755Z,5.63
2018-09-21T06:43:05.381Z,4.77
2018-09-21T06:48:09.354Z,5.27
2018-09-21T06:53:13.173Z,4.57
2018-09-21T06:58:17.839Z,3.93
2018-09-21T07:03:22.590Z,5.10
2018-09-21T07:08:27.158Z,5.07
2018-09-21T07:13:32.226Z,4.37
2018-09-21T07:18:37.424Z,5.67
2018-09-21T07:23:42.294Z,4.43
2018-09-21T07:28:46.552Z,4.20
2018-09-21T07:33:52.479Z,4.97
2018-09-21T07:38:57.388Z,4.07
2018-09-21T07:44:01.650Z,4.13
2018-09-21T07:49:05.309Z,5.13
2018-09-21T07:54:09.658Z,4.00
2018-09-21T07:59:13.550Z,3.77
2018-09-21T08:04:17.083Z,3.93
2018-09-21T08:09:20.690Z,4.20
2018-09-21T08:14:24.422Z,6.30
2018-09-21T08:19:28.018Z,3.90
2018-09-21T08:24:31.615Z,4.30
2018-09-21T08:29:35.199Z,4.00
2018-09-21T08:34:38.956Z,3.90
2018-09-21T08:39:42.584Z,3.23
2018-09-21T08:44:46.100Z,3.13
2018-09-21T08:49:49.815Z,3.80
2018-09-21T08:54:53.416Z,3.57
2018-09-21T08:59:57.003Z,3.23
2018-09-21T09:05:00.620Z,2.97
2018-09-21T09:10:04.199Z,3.13
2018-09-21T09:15:07.792Z,2.87
2018-09-21T09:20:11.515Z,3.10
2018-09-21T09:25:15.175Z,2.73
2018-09-21T09:30:25.350Z,2.70
2018-09-21T09:35:29.146Z,3.77
2018-09-21T09:40:32.772Z,2.80
2018-09-21T09:45:36.519Z,3.23
2018-09-21T09:50:41.594Z,4.00
2018-09-21T09:55:45.211Z,3.27
2018-09-21T10:00:51.858Z,3.10
2018-09-21T10:05:55.421Z,2.37
2018-09-21T10:10:58.952Z,1.87
2018-09-21T10:16:02.638Z,1.50
2018-09-21T10:21:06.179Z,2.30
2018-09-21T10:26:09.713Z,2.13
2018-09-21T10:31:13.263Z,2.33
2018-09-21T10:36:16.859Z,2.73
2018-09-21T10:41:20.382Z,2.23
2018-09-21T10:46:24.301Z,2.20
2018-09-21T10:51:28.463Z,1.70
2018-09-21T10:56:32.242Z,1.53
2018-09-21T11:01:36.002Z,0.73
2018-09-21T11:06:39.535Z,1.37
2018-09-21T11:11:43.086Z,1.53
2018-09-21T11:16:46.639Z,1.60
2018-09-21T11:21:50.371Z,1.30
2018-09-21T11:26:56.073Z,1.57
2018-09-21T11:32:03.273Z,1.87
2018-09-21T11:37:06.964Z,2.23
2018-09-21T11:42:12.543Z,1.93
2018-09-21T11:47:19.207Z,1.70
2018-09-21T11:52:23.565Z,1.70
2018-09-21T11:57:38.255Z,2.30
2018-09-21T12:02:42.058Z,2.20
2018-09-21T12:07:45.644Z,1.80
2018-09-21T12:12:49.425Z,2.17
2018-09-21T12:17:52.993Z,2.07
2018-09-21T12:22:56.603Z,3.03
2018-09-21T12:28:00.368Z,2.53
2018-09-21T12:33:03.926Z,3.47
2018-09-21T12:38:07.483Z,3.50
2018-09-21T12:43:11.063Z,3.63
2018-09-21T12:48:14.661Z,3.43
2018-09-21T12:53:18.180Z,4.33
2018-09-21T12:58:21.942Z,3.77
2018-09-21T13:03:25.473Z,4.33
2018-09-21T13:08:29.331Z,4.03
2018-09-21T13:13:32.985Z,4.60
2018-09-21T13:18:36.825Z,4.93
2018-09-21T13:23:40.663Z,5.30
2018-09-21T13:28:44.328Z,4.40
2018-09-21T13:33:47.822Z,2.90
2018-09-21T13:38:51.352Z,1.80
2018-09-21T13:43:55.174Z,2.60
2018-09-21T13:48:58.765Z,1.17
2018-09-21T13:54:02.344Z,1.77
2018-09-21T13:59:06.064Z,1.13
2018-09-21T14:04:09.622Z,1.33
2018-09-21T14:09:13.192Z,1.10
2018-09-21T14:14:16.700Z,2.07
2018-09-21T14:19:20.540Z,0.77
2018-09-21T14:24:24.368Z,1.00
2018-09-21T14:29:28.254Z,1.10
2018-09-21T14:34:31.890Z,1.17
2018-09-21T14:39:35.461Z,0.80
2018-09-21T14:44:39.066Z,0.87
2018-09-21T14:49:42.785Z,0.70
2018-09-21T14:54:46.342Z,0.60
2018-09-21T14:59:49.955Z,0.50
2018-09-21T15:04:53.629Z,2.03
2018-09-21T15:09:57.203Z,0.60
2018-09-21T15:15:00.721Z,0.57
2018-09-21T15:20:04.344Z,1.37
2018-09-21T15:25:07.869Z,0.93
2018-09-21T15:30:14.046Z,0.50
2018-09-21T15:35:17.795Z,0.90
2018-09-21T15:40:21.442Z,0.93
2018-09-21T15:45:24.987Z,0.53
2018-09-21T15:50:28.564Z,0.67
2018-09-21T15:55:32.163Z,0.80
2018-09-21T16:00:35.954Z,0.50
2018-09-21T16:05:39.483Z,1.60
2018-09-21T16:10:43.084Z,0.77
2018-09-21T16:15:46.668Z,0.40
2018-09-21T16:20:50.289Z,0.43
2018-09-21T16:25:53.816Z,0.53
2018-09-21T16:30:57.377Z,1.03
2018-09-21T16:36:00.969Z,0.90
2018-09-21T16:41:04.583Z,1.03
2018-09-21T16:46:08.276Z,0.53
2018-09-21T16:51:12.131Z,0.40
2018-09-21T16:56:16.106Z,0.70
2018-09-21T17:01:19.730Z,1.03
2018-09-21T17:06:23.337Z,0.73
2018-09-21T17:11:27.067Z,0.53
2018-09-21T17:16:30.564Z,0.67
2018-09-21T17:21:34.337Z,0.57
2018-09-21T17:26:37.932Z,1.00
2018-09-21T17:31:42.398Z,1.20
2018-09-21T17:36:46.032Z,0.67
2018-09-21T17:41:51.093Z,1.13
2018-09-21T17:46:56.143Z,1.10
2018-09-21T17:52:01.230Z,1.03
2018-09-21T17:57:08.401Z,0.83
2018-09-21T18:02:12.431Z,0.80
2018-09-21T18:07:22.259Z,0.60
2018-09-21T18:12:27.736Z,1.03
2018-09-21T18:17:33.553Z,1.17
2018-09-21T18:22:37.217Z,1.33
2018-09-21T18:27:40.851Z,0.80
2018-09-21T18:32:44.426Z,1.63
2018-09-21T18:37:48.074Z,0.70
2018-09-21T18:42:51.653Z,2.57
2018-09-21T18:47:55.252Z,2.97
2018-09-21T18:52:58.845Z,1.57
2018-09-21T18:58:02.412Z,3.57
2018-09-21T19:03:06.187Z,2.50
2018-09-21T19:08:09.865Z,2.07
2018-09-21T19:13:13.418Z,2.40
2018-09-21T19:18:16.993Z,2.23
2018-09-21T19:23:20.740Z,1.10
2018-09-21T19:28:24.615Z,1.10
2018-09-21T19:33:29.132Z,1.23
2018-09-21T19:38:33.075Z,1.40
2018-09-21T19:43:36.593Z,1.13
2018-09-21T19:48:40.140Z,1.13
2018-09-21T19:53:43.681Z,0.97
2018-09-21T19:58:47.292Z,1.30
2018-09-21T20:03:50.885Z,1.17
2018-09-21T20:08:54.476Z,0.80
2018-09-21T20:13:58.055Z,1.33
2018-09-21T20:19:01.681Z,1.27
2018-09-21T20:24:05.214Z,1.17
2018-09-21T20:29:23.074Z,1.77
2018-09-21T20:34:29.445Z,1.57
2018-09-21T20:39:33.134Z,1.37
2018-09-21T20:44:48.373Z,1.30
2018-09-21T20:49:52.057Z,1.53
2018-09-21T20:54:56.583Z,1.57
2018-09-21T21:00:01.126Z,2.13
2018-09-21T21:05:04.925Z,1.50
2018-09-21T21:10:08.697Z,2.07
2018-09-21T21:15:19.234Z,2.23
2018-09-21T21:20:22.850Z,1.83
2018-09-21T21:25:26.386Z,1.80
2018-09-21T21:30:30.097Z,2.37
2018-09-21T21:35:33.651Z,1.67
2018-09-21T21:40:37.162Z,1.60
2018-09-21T21:45:40.797Z,2.83
2018-09-21T21:50:44.345Z,1.50
2018-09-21T21:55:47.894Z,1.10
2018-09-21T22:00:57.421Z,1.30
2018-09-21T22:06:01.055Z,1.77
2018-09-21T22:11:08.870Z,1.20
2018-09-21T22:16:12.526Z,1.30
2018-09-21T22:21:16.135Z,1.77
2018-09-21T22:26:19.765Z,1.90
2018-09-21T22:31:23.508Z,1.93
2018-09-21T22:36:27.114Z,2.57
2018-09-21T22:41:30.683Z,2.43
2018-09-21T22:46:34.289Z,3.40
2018-09-21T22:51:37.853Z,4.23
2018-09-21T22:56:41.461Z,4.73
2018-09-21T23:01:45.071Z,3.87
2018-09-21T23:06:48.609Z,3.77
2018-09-21T23:11:52.313Z,3.87
2018-09-21T23:16:55.927Z,3.33
2018-09-21T23:22:06.295Z,3.63
2018-09-21T23:27:09.819Z,2.30
2018-09-21T23:32:13.427Z,2.10
2018-09-21T23:37:17.038Z,1.90
2018-09-21T23:42:20.598Z,1.67
2018-09-21T23:47:24.163Z,2.13
2018-09-21T23:52:27.735Z,2.47
2018-09-21T23:57:31.355Z,2.50
